createdAt,value
2019-05-07T00:02:13.456Z,99.90
2019-05-07T00:04:42.782Z,99.90
2019-05-07T00:07:13.009Z,99.90
2019-05-07T00:09:43.057Z,99.90
2019-05-07T00:12:12.567Z,99.90
2019-05-07T00:14:42.970Z,99.90
2019-05-07T00:17:13.056Z,99.90
2019-05-07T00:19:43.157Z,99.90
2019-05-07T00:22:12.549Z,99.90
2019-05-07T00:24:42.659Z,99.90
2019-05-07T00:27:13.133Z,99.90
2019-05-07T00:29:42.950Z,99.90
2019-05-07T00:32:12.245Z,99.90
2019-05-07T00:34:42.651Z,99.90
2019-05-07T00:37:13.166Z,99.90
2019-05-07T00:39:46.294Z,99.90
2019-05-07T00:42:16.483Z,99.90
2019-05-07T00:45:13.191Z,99.90
2019-05-07T00:47:29.175Z,99.90
2019-05-07T00:49:59.430Z,99.90
2019-05-07T00:52:28.142Z,99.90
2019-05-07T00:54:56.772Z,99.90
2019-05-07T00:57:25.315Z,99.90
2019-05-07T00:59:53.890Z,99.90
2019-05-07T01:02:23.255Z,99.90
2019-05-07T01:04:53.161Z,99.90
2019-05-07T01:07:22.898Z,99.90
2019-05-07T01:09:52.388Z,99.90
2019-05-07T01:12:22.270Z,99.90
2019-05-07T01:14:52.895Z,99.90
2019-05-07T01:17:22.713Z,99.90
2019-05-07T01:19:53.232Z,99.90
2019-05-07T01:22:22.329Z,99.90
2019-05-07T01:24:52.539Z,99.90
2019-05-07T01:27:22.624Z,99.90
2019-05-07T01:29:52.854Z,99.90
2019-05-07T01:32:26.378Z,99.90
2019-05-07T01:34:59.102Z,99.90
2019-05-07T01:37:27.580Z,99.90
2019-05-07T01:39:56.146Z,99.90
2019-05-07T01:42:24.697Z,99.90
2019-05-07T01:44:53.383Z,99.90
2019-05-07T01:47:23.742Z,99.90
2019-05-07T01:49:52.422Z,99.90
2019-05-07T01:52:22.711Z,99.90
2019-05-07T01:54:52.294Z,99.90
2019-05-07T01:57:22.978Z,99.90
2019-05-07T01:59:52.749Z,99.90
2019-05-07T02:02:23.214Z,99.90
2019-05-07T02:04:56.533Z,99.90
2019-05-07T02:07:29.390Z,99.90
2019-05-07T02:09:59.577Z,99.90
2019-05-07T02:12:31.760Z,99.90
2019-05-07T02:15:02.464Z,99.90
2019-05-07T02:17:32.227Z,99.90
2019-05-07T02:20:02.688Z,99.90
2019-05-07T02:22:32.033Z,99.90
2019-05-07T02:25:03.097Z,99.90
2019-05-07T02:27:32.888Z,99.90
2019-05-07T02:30:04.153Z,99.90
2019-05-07T02:32:33.480Z,99.90
2019-05-07T02:35:03.982Z,99.90
2019-05-07T02:37:46.491Z,99.90
2019-05-07T02:40:15.413Z,99.90
2019-05-07T02:42:44.449Z,99.90
2019-05-07T02:45:33.388Z,99.90
2019-05-07T02:48:03.441Z,99.90
2019-05-07T02:50:39.710Z,99.90
2019-05-07T02:53:25.097Z,99.90
2019-05-07T02:55:55.419Z,99.90
2019-05-07T02:58:24.334Z,99.90
2019-05-07T03:00:53.420Z,99.90
2019-05-07T03:03:24.734Z,99.90
2019-05-07T03:05:53.910Z,99.90
2019-05-07T03:08:26.978Z,99.90
2019-05-07T03:10:53.331Z,99.90
2019-05-07T03:13:23.802Z,99.90
2019-05-07T03:15:53.978Z,99.90
2019-05-07T03:18:23.548Z,99.90
2019-05-07T03:20:59.683Z,99.90
2019-05-07T03:23:44.917Z,99.90
2019-05-07T03:26:17.959Z,99.90
2019-05-07T03:28:53.569Z,99.90
2019-05-07T03:31:26.758Z,99.90
2019-05-07T03:33:57.124Z,99.90
2019-05-07T03:36:47.457Z,99.90
2019-05-07T03:39:15.557Z,99.90
2019-05-07T03:41:44.714Z,99.90
2019-05-07T03:44:23.598Z,99.90
2019-05-07T03:47:01.139Z,99.90
2019-05-07T03:49:27.587Z,99.90
2019-05-07T03:51:56.990Z,99.90
2019-05-07T03:54:25.837Z,99.90
2019-05-07T03:56:54.508Z,99.90
2019-05-07T03:59:23.375Z,99.90
2019-05-07T04:01:53.854Z,99.90
2019-05-07T04:04:23.142Z,99.90
2019-05-07T04:06:53.795Z,99.90
2019-05-07T04:09:24.134Z,99.90
2019-05-07T04:11:52.986Z,99.90
2019-05-07T04:14:23.156Z,99.90
2019-05-07T04:16:53.558Z,99.90
2019-05-07T04:19:23.518Z,99.90
2019-05-07T04:21:53.368Z,99.90
2019-05-07T04:24:23.785Z,99.90
2019-05-07T04:26:53.991Z,99.90
2019-05-07T04:29:23.201Z,99.90
2019-05-07T04:31:53.351Z,99.90
2019-05-07T04:34:39.772Z,99.90
2019-05-07T04:37:08.325Z,99.90
2019-05-07T04:39:36.938Z,99.90
2019-05-07T04:42:05.568Z,99.90
2019-05-07T04:44:34.124Z,99.90
2019-05-07T04:47:04.360Z,99.90
2019-05-07T04:49:33.376Z,99.90
2019-05-07T04:52:06.680Z,99.90
2019-05-07T04:54:35.255Z,99.90
2019-05-07T04:57:05.585Z,99.90
2019-05-07T04:59:34.123Z,99.90
2019-05-07T05:02:13.695Z,99.90
2019-05-07T05:04:43.891Z,99.90
2019-05-07T05:07:13.346Z,99.90
2019-05-07T05:09:42.605Z,99.90
2019-05-07T05:12:13.177Z,99.90
2019-05-07T05:14:43.481Z,99.90
2019-05-07T05:17:12.960Z,99.90
2019-05-07T05:19:43.730Z,99.90
2019-05-07T05:22:13.695Z,99.90
2019-05-07T05:24:44.023Z,99.90
2019-05-07T05:27:12.642Z,99.90
2019-05-07T05:29:42.944Z,99.90
2019-05-07T05:32:12.061Z,99.90
2019-05-07T05:34:42.605Z,99.90
2019-05-07T05:37:14.026Z,99.90
2019-05-07T05:39:42.858Z,99.90
2019-05-07T05:42:13.037Z,99.90
2019-05-07T05:44:41.775Z,99.90
2019-05-07T05:47:11.947Z,99.90
2019-05-07T05:49:42.755Z,99.90
2019-05-07T05:52:15.227Z,99.90
2019-05-07T05:54:48.206Z,99.90
2019-05-07T05:57:22.870Z,99.90
2019-05-07T05:59:55.243Z,99.90
2019-05-07T06:02:39.574Z,99.90
2019-05-07T06:05:16.066Z,99.90
2019-05-07T06:07:49.222Z,99.90
2019-05-07T06:10:19.557Z,99.90
2019-05-07T06:12:49.746Z,99.90
2019-05-07T06:15:25.729Z,99.90
2019-05-07T06:17:55.910Z,99.90
2019-05-07T06:20:42.958Z,99.90
2019-05-07T06:23:19.229Z,99.90
2019-05-07T06:25:48.687Z,99.90
2019-05-07T06:28:17.402Z,99.90
2019-05-07T06:30:47.246Z,99.90
2019-05-07T06:33:15.790Z,99.90
2019-05-07T06:35:44.361Z,99.90
2019-05-07T06:38:14.006Z,99.90
2019-05-07T06:40:44.331Z,99.90
2019-05-07T06:43:23.786Z,99.90
2019-05-07T06:45:53.889Z,99.90
2019-05-07T06:48:37.727Z,99.90
2019-05-07T06:50:59.510Z,99.90
2019-05-07T06:53:30.101Z,99.90
2019-05-07T06:56:02.645Z,99.90
2019-05-07T06:58:35.083Z,99.90
2019-05-07T07:01:22.771Z,99.90
2019-05-07T07:04:04.991Z,99.90
2019-05-07T07:06:35.321Z,99.90
2019-05-07T07:09:13.273Z,99.90
2019-05-07T07:11:43.559Z,99.90
2019-05-07T07:14:12.146Z,99.90
2019-05-07T07:16:42.088Z,99.90
2019-05-07T07:19:12.434Z,99.90
2019-05-07T07:21:42.162Z,98.10
2019-05-07T07:24:12.711Z,92.40
2019-05-07T07:27:02.434Z,78.20
2019-05-07T07:29:34.807Z,67.00
2019-05-07T07:32:07.818Z,61.10
2019-05-07T07:34:38.150Z,60.80
2019-05-07T07:37:15.839Z,58.30
2019-05-07T07:39:44.620Z,60.60
2019-05-07T07:42:13.170Z,64.70
2019-05-07T07:44:42.561Z,68.70
2019-05-07T07:47:12.937Z,67.20
2019-05-07T07:49:42.045Z,73.50
2019-05-07T07:52:12.209Z,74.90
2019-05-07T07:54:42.864Z,75.20
2019-05-07T07:57:12.846Z,73.70
2019-05-07T07:59:45.624Z,76.40
2019-05-07T08:02:15.952Z,78.70
2019-05-07T08:04:44.564Z,82.40
2019-05-07T08:07:13.309Z,84.70
2019-05-07T08:09:42.906Z,79.60
2019-05-07T08:12:12.752Z,76.40
2019-05-07T08:14:42.959Z,77.30
2019-05-07T08:17:12.975Z,73.40
2019-05-07T08:19:42.901Z,74.60
2019-05-07T08:22:13.469Z,76.40
2019-05-07T08:24:42.628Z,78.30
2019-05-07T08:27:14.681Z,78.60
2019-05-07T08:29:43.006Z,79.90
2019-05-07T08:32:19.301Z,81.70
2019-05-07T08:34:55.047Z,82.20
2019-05-07T08:37:24.571Z,84.00
2019-05-07T08:39:53.250Z,80.80
2019-05-07T08:42:22.848Z,79.70
2019-05-07T08:44:56.102Z,81.40
2019-05-07T08:47:29.195Z,81.30
2019-05-07T08:49:57.747Z,74.60
2019-05-07T08:52:26.431Z,73.50
2019-05-07T08:54:56.620Z,74.60
2019-05-07T08:57:25.310Z,75.00
2019-05-07T09:00:00.861Z,76.90
2019-05-07T09:02:24.394Z,77.10
2019-05-07T09:04:52.942Z,78.00
2019-05-07T09:07:22.018Z,79.00
2019-05-07T09:09:52.334Z,78.70
2019-05-07T09:12:22.973Z,79.10
2019-05-07T09:14:52.899Z,81.90
2019-05-07T09:17:23.020Z,78.00
2019-05-07T09:19:54.757Z,76.00
2019-05-07T09:22:23.126Z,75.70
2019-05-07T09:24:52.616Z,80.10
2019-05-07T09:27:23.306Z,76.90
2019-05-07T09:29:56.235Z,71.60
2019-05-07T09:32:26.666Z,69.80
2019-05-07T09:34:57.026Z,69.00
2019-05-07T09:37:32.835Z,67.30
2019-05-07T09:40:02.925Z,67.60
2019-05-07T09:42:33.262Z,65.40
2019-05-07T09:45:02.170Z,67.30
2019-05-07T09:47:32.584Z,68.00
2019-05-07T09:50:07.025Z,67.30
2019-05-07T09:52:32.127Z,66.20
2019-05-07T09:55:11.013Z,60.90
2019-05-07T09:57:34.387Z,62.90
2019-05-07T10:00:02.308Z,65.70
2019-05-07T10:02:32.041Z,61.90
2019-05-07T10:05:02.387Z,59.30
2019-05-07T10:07:32.498Z,60.90
2019-05-07T10:10:03.248Z,61.90
2019-05-07T10:12:39.463Z,58.70
2019-05-07T10:15:08.423Z,61.70
2019-05-07T10:17:44.768Z,60.60
2019-05-07T10:20:21.847Z,60.90
2019-05-07T10:22:45.086Z,59.60
2019-05-07T10:25:14.118Z,62.30
2019-05-07T10:27:42.841Z,62.90
2019-05-07T10:30:12.867Z,60.80
2019-05-07T10:32:42.544Z,56.50
2019-05-07T10:35:12.727Z,59.40
2019-05-07T10:37:42.272Z,57.70
2019-05-07T10:40:12.383Z,57.30
2019-05-07T10:42:43.093Z,58.50
2019-05-07T10:45:15.827Z,60.80
2019-05-07T10:47:55.037Z,56.20
2019-05-07T10:50:38.657Z,57.40
2019-05-07T10:53:02.357Z,55.80
2019-05-07T10:55:32.841Z,56.40
2019-05-07T10:58:02.927Z,57.70
2019-05-07T11:00:33.065Z,58.20
2019-05-07T11:03:02.457Z,59.10
2019-05-07T11:05:32.626Z,57.80
2019-05-07T11:08:02.250Z,57.00
2019-05-07T11:10:32.607Z,54.20
2019-05-07T11:13:02.293Z,52.50
2019-05-07T11:15:32.640Z,56.10
2019-05-07T11:18:09.463Z,56.70
2019-05-07T11:20:47.368Z,54.70
2019-05-07T11:23:08.521Z,55.50
2019-05-07T11:25:37.202Z,53.40
2019-05-07T11:28:05.891Z,53.30
2019-05-07T11:30:34.534Z,51.60
2019-05-07T11:33:03.142Z,54.60
2019-05-07T11:35:31.993Z,51.80
2019-05-07T11:38:03.791Z,49.90
2019-05-07T11:40:32.206Z,47.90
2019-05-07T11:43:05.678Z,48.10
2019-05-07T11:45:54.165Z,50.80
2019-05-07T11:48:23.678Z,49.10
2019-05-07T11:51:01.450Z,51.30
2019-05-07T11:53:25.840Z,51.90
2019-05-07T11:55:54.412Z,50.90
2019-05-07T11:58:23.027Z,50.70
2019-05-07T12:00:58.739Z,48.50
2019-05-07T12:03:27.429Z,50.70
2019-05-07T12:05:55.977Z,52.30
2019-05-07T12:08:37.427Z,50.30
2019-05-07T12:10:54.883Z,50.60
2019-05-07T12:13:23.499Z,51.20
2019-05-07T12:15:52.376Z,47.50
2019-05-07T12:18:22.664Z,50.00
2019-05-07T12:20:53.902Z,50.70
2019-05-07T12:23:22.602Z,50.00
2019-05-07T12:25:52.903Z,49.90
2019-05-07T12:28:22.499Z,48.10
2019-05-07T12:31:01.582Z,48.30
2019-05-07T12:33:46.675Z,51.90
2019-05-07T12:36:16.257Z,50.20
2019-05-07T12:38:44.883Z,48.70
2019-05-07T12:41:33.926Z,48.80
2019-05-07T12:44:04.170Z,50.30
2019-05-07T12:46:33.754Z,50.90
2019-05-07T12:49:03.289Z,48.80
2019-05-07T12:51:37.520Z,49.60
2019-05-07T12:54:08.537Z,49.40
2019-05-07T12:56:37.224Z,50.90
2019-05-07T12:59:05.934Z,51.30
2019-05-07T13:01:38.925Z,50.40
2019-05-07T13:04:09.110Z,52.00
2019-05-07T13:06:42.187Z,52.80
2019-05-07T13:09:12.590Z,51.50
2019-05-07T13:11:42.511Z,49.90
2019-05-07T13:14:12.565Z,50.40
2019-05-07T13:16:42.226Z,47.90
2019-05-07T13:19:13.071Z,49.00
2019-05-07T13:21:47.436Z,48.10
2019-05-07T13:24:11.694Z,47.30
2019-05-07T13:26:42.741Z,48.30
2019-05-07T13:29:12.817Z,47.90
2019-05-07T13:31:42.523Z,48.20
2019-05-07T13:34:12.214Z,46.10
2019-05-07T13:36:42.955Z,45.80
2019-05-07T13:39:16.409Z,46.90
2019-05-07T13:41:46.757Z,48.40
2019-05-07T13:44:23.358Z,49.40
2019-05-07T13:46:54.415Z,48.70
2019-05-07T13:49:23.303Z,48.00
2019-05-07T13:52:03.115Z,47.80
2019-05-07T13:54:22.634Z,46.40
2019-05-07T13:56:52.513Z,49.30
2019-05-07T13:59:22.368Z,45.80
2019-05-07T14:01:53.570Z,47.20
2019-05-07T14:04:22.357Z,47.70
2019-05-07T14:06:52.836Z,48.20
2019-05-07T14:09:24.316Z,46.30
2019-05-07T14:11:53.274Z,47.40
2019-05-07T14:14:22.594Z,45.00
2019-05-07T14:16:52.955Z,47.20
2019-05-07T14:19:22.419Z,49.40
2019-05-07T14:21:52.521Z,46.60
2019-05-07T14:24:22.450Z,45.50
2019-05-07T14:26:52.746Z,46.00
2019-05-07T14:29:24.461Z,43.40
2019-05-07T14:31:53.425Z,45.30
2019-05-07T14:34:34.929Z,44.60
2019-05-07T14:37:13.351Z,45.80
2019-05-07T14:39:42.538Z,46.40
2019-05-07T14:42:12.980Z,47.20
2019-05-07T14:44:49.854Z,44.90
2019-05-07T14:47:19.439Z,45.00
2019-05-07T14:49:48.522Z,44.50
2019-05-07T14:52:29.174Z,44.40
2019-05-07T14:54:47.666Z,45.10
2019-05-07T14:57:16.354Z,45.60
2019-05-07T14:59:45.067Z,46.40
2019-05-07T15:02:13.754Z,47.90
2019-05-07T15:04:42.578Z,47.60
2019-05-07T15:07:12.011Z,47.90
2019-05-07T15:09:42.436Z,48.60
2019-05-07T15:12:14.453Z,48.20
2019-05-07T15:14:42.183Z,46.60
2019-05-07T15:17:24.886Z,48.10
2019-05-07T15:19:53.531Z,47.30
2019-05-07T15:22:46.239Z,48.60
2019-05-07T15:25:07.272Z,48.20
2019-05-07T15:27:36.854Z,49.40
2019-05-07T15:30:05.914Z,50.70
2019-05-07T15:32:34.600Z,51.30
2019-05-07T15:35:06.926Z,49.60
2019-05-07T15:37:35.498Z,50.10
2019-05-07T15:40:06.498Z,48.20
2019-05-07T15:42:35.178Z,47.60
2019-05-07T15:45:04.426Z,49.30
2019-05-07T15:47:37.482Z,48.60
2019-05-07T15:50:07.170Z,48.30
2019-05-07T15:52:58.486Z,48.30
2019-05-07T15:55:23.013Z,48.30
2019-05-07T15:57:52.251Z,48.90
2019-05-07T16:00:23.174Z,49.70
2019-05-07T16:02:56.658Z,50.10
2019-05-07T16:05:25.338Z,48.50
2019-05-07T16:07:54.090Z,48.80
2019-05-07T16:10:23.257Z,50.40
2019-05-07T16:12:53.166Z,48.80
2019-05-07T16:15:22.500Z,49.90
2019-05-07T16:17:55.905Z,49.90
2019-05-07T16:20:24.594Z,50.10
2019-05-07T16:22:55.065Z,50.60
2019-05-07T16:25:23.663Z,50.40
2019-05-07T16:27:52.736Z,52.00
2019-05-07T16:30:22.840Z,51.70
2019-05-07T16:32:55.110Z,52.40
2019-05-07T16:35:22.753Z,52.70
2019-05-07T16:37:52.221Z,53.00
2019-05-07T16:40:22.977Z,53.70
2019-05-07T16:42:52.445Z,53.50
2019-05-07T16:45:21.445Z,52.90
2019-05-07T16:47:51.989Z,51.10
2019-05-07T16:50:22.347Z,52.40
2019-05-07T16:52:52.381Z,51.10
2019-05-07T16:55:22.492Z,51.30
2019-05-07T16:58:01.945Z,50.30
2019-05-07T17:00:42.280Z,50.80
2019-05-07T17:03:12.623Z,50.70
2019-05-07T17:05:42.942Z,51.30
2019-05-07T17:08:13.297Z,50.90
2019-05-07T17:10:42.404Z,51.20
2019-05-07T17:13:12.521Z,51.90
2019-05-07T17:15:59.357Z,52.50
2019-05-07T17:18:28.646Z,52.60
2019-05-07T17:20:58.554Z,52.90
2019-05-07T17:23:34.393Z,53.00
2019-05-07T17:25:57.550Z,53.70
2019-05-07T17:28:27.690Z,54.00
2019-05-07T17:30:56.230Z,55.00
2019-05-07T17:33:24.776Z,54.70
2019-05-07T17:35:53.719Z,54.80
2019-05-07T17:38:23.047Z,55.00
2019-05-07T17:40:52.294Z,55.50
2019-05-07T17:43:22.000Z,56.30
2019-05-07T17:45:52.361Z,57.80
2019-05-07T17:48:23.051Z,58.20
2019-05-07T17:51:08.288Z,58.70
2019-05-07T17:53:37.301Z,59.80
2019-05-07T17:56:05.920Z,59.50
2019-05-07T17:58:34.469Z,59.00
2019-05-07T18:01:04.279Z,59.60
2019-05-07T18:03:34.535Z,61.80
2019-05-07T18:06:03.990Z,63.80
2019-05-07T18:08:32.924Z,64.80
2019-05-07T18:11:02.346Z,66.50
2019-05-07T18:13:32.856Z,68.10
2019-05-07T18:16:05.921Z,69.10
2019-05-07T18:18:34.489Z,70.70
2019-05-07T18:21:05.231Z,71.40
2019-05-07T18:23:34.321Z,72.40
2019-05-07T18:26:03.619Z,74.30
2019-05-07T18:28:34.013Z,76.00
2019-05-07T18:31:02.880Z,77.60
2019-05-07T18:33:35.632Z,78.00
2019-05-07T18:36:05.453Z,79.40
2019-05-07T18:38:34.057Z,81.90
2019-05-07T18:41:02.928Z,84.20
2019-05-07T18:43:33.133Z,86.70
2019-05-07T18:46:02.329Z,89.00
2019-05-07T18:48:31.136Z,90.60
2019-05-07T18:50:59.953Z,91.50
2019-05-07T18:53:28.502Z,92.60
2019-05-07T18:55:57.083Z,93.00
2019-05-07T18:58:25.773Z,94.20
2019-05-07T19:01:02.665Z,94.40
2019-05-07T19:03:32.504Z,94.90
2019-05-07T19:06:02.802Z,95.00
2019-05-07T19:08:32.698Z,95.40
2019-05-07T19:11:01.738Z,95.90
2019-05-07T19:13:32.475Z,96.20
2019-05-07T19:16:02.853Z,96.80
2019-05-07T19:18:32.183Z,97.00
2019-05-07T19:21:00.939Z,97.40
2019-05-07T19:23:29.485Z,98.00
2019-05-07T19:25:58.301Z,98.70
2019-05-07T19:28:26.838Z,99.20
2019-05-07T19:30:55.518Z,99.70
2019-05-07T19:33:27.008Z,99.90
2019-05-07T19:35:54.554Z,99.90
2019-05-07T19:38:23.175Z,99.90
2019-05-07T19:40:52.842Z,99.90
2019-05-07T19:43:21.575Z,99.90
2019-05-07T19:45:52.246Z,99.90
2019-05-07T19:48:22.934Z,99.90
2019-05-07T19:50:52.717Z,99.90
2019-05-07T19:53:23.298Z,99.90
2019-05-07T19:56:08.382Z,99.90
2019-05-07T19:58:37.003Z,99.90
2019-05-07T20:01:07.187Z,99.90
2019-05-07T20:03:35.974Z,99.90
2019-05-07T20:06:04.676Z,99.90
2019-05-07T20:08:33.299Z,99.90
2019-05-07T20:11:06.796Z,99.90
2019-05-07T20:13:35.422Z,99.90
2019-05-07T20:16:05.687Z,99.90
2019-05-07T20:18:34.334Z,99.90
2019-05-07T20:21:03.030Z,99.90
2019-05-07T20:23:32.695Z,99.90
2019-05-07T20:26:03.033Z,99.90
2019-05-07T20:28:32.591Z,99.90
2019-05-07T20:31:01.491Z,99.90
2019-05-07T20:33:32.533Z,99.90
2019-05-07T20:36:02.522Z,99.90
2019-05-07T20:38:32.068Z,99.90
2019-05-07T20:41:02.128Z,99.90
2019-05-07T20:43:52.302Z,99.90
2019-05-07T20:46:20.890Z,99.90
2019-05-07T20:48:49.620Z,99.90
2019-05-07T20:51:18.246Z,99.90
2019-05-07T20:53:54.264Z,99.90
2019-05-07T20:56:24.451Z,99.90
2019-05-07T20:58:53.182Z,99.90
2019-05-07T21:01:22.131Z,99.90
2019-05-07T21:03:52.570Z,99.90
2019-05-07T21:06:22.477Z,99.90
2019-05-07T21:08:51.348Z,99.90
2019-05-07T21:11:20.066Z,99.90
2019-05-07T21:13:48.611Z,99.90
2019-05-07T21:16:17.345Z,99.90
2019-05-07T21:18:45.966Z,99.90
2019-05-07T21:21:14.657Z,99.90
2019-05-07T21:23:44.781Z,99.90
2019-05-07T21:26:13.442Z,99.90
2019-05-07T21:28:43.164Z,99.90
2019-05-07T21:31:12.152Z,99.90
2019-05-07T21:33:42.816Z,99.90
2019-05-07T21:36:12.087Z,99.90
2019-05-07T21:38:42.510Z,99.90
2019-05-07T21:41:12.839Z,99.90
2019-05-07T21:43:45.588Z,99.90
2019-05-07T21:46:12.760Z,99.90
2019-05-07T21:48:43.826Z,99.90
2019-05-07T21:51:12.450Z,99.90
2019-05-07T21:53:45.604Z,99.90
2019-05-07T21:56:33.718Z,99.90
2019-05-07T21:59:04.077Z,99.90
2019-05-07T22:01:37.626Z,99.90
2019-05-07T22:04:06.323Z,99.90
2019-05-07T22:06:34.904Z,99.90
2019-05-07T22:09:05.064Z,99.90
2019-05-07T22:11:33.622Z,99.90
2019-05-07T22:14:02.338Z,99.90
2019-05-07T22:16:32.841Z,99.90
2019-05-07T22:19:02.602Z,99.90
2019-05-07T22:21:33.900Z,99.90
2019-05-07T22:24:02.817Z,99.90
2019-05-07T22:26:32.336Z,99.90
2019-05-07T22:29:03.158Z,99.90
2019-05-07T22:31:38.767Z,99.90
2019-05-07T22:34:12.823Z,99.90
2019-05-07T22:36:43.162Z,99.90
2019-05-07T22:39:12.616Z,99.90
2019-05-07T22:41:42.471Z,99.90
2019-05-07T22:44:11.993Z,99.90
2019-05-07T22:46:42.124Z,99.90
2019-05-07T22:49:12.288Z,99.90
2019-05-07T22:51:40.996Z,99.90
2019-05-07T22:54:11.701Z,99.90
2019-05-07T22:56:59.282Z,99.90
2019-05-07T22:59:27.906Z,99.90
2019-05-07T23:01:56.466Z,99.90
2019-05-07T23:04:25.046Z,99.90
2019-05-07T23:06:53.612Z,99.90
2019-05-07T23:09:22.512Z,99.90
2019-05-07T23:11:52.593Z,99.90
2019-05-07T23:14:22.670Z,99.90
2019-05-07T23:16:52.625Z,99.90
2019-05-07T23:19:22.253Z,99.90
2019-05-07T23:21:52.140Z,99.90
2019-05-07T23:24:22.683Z,99.90
2019-05-07T23:26:53.535Z,99.90
2019-05-07T23:29:22.443Z,99.90
2019-05-07T23:31:52.790Z,99.90
2019-05-07T23:34:22.125Z,99.90
2019-05-07T23:36:53.121Z,99.90
2019-05-07T23:39:22.843Z,99.90
2019-05-07T23:42:08.414Z,99.90
2019-05-07T23:44:36.965Z,99.90
2019-05-07T23:47:05.666Z,99.90
2019-05-07T23:49:34.408Z,99.90
2019-05-07T23:52:03.099Z,99.90
2019-05-07T23:54:31.997Z,99.90
2019-05-07T23:57:07.056Z,99.90
2019-05-07T23:59:32.845Z,99.90
